createdAt,value
2022-10-25T00:00:55.384Z,13.30
2022-10-25T00:03:24.937Z,13.30
2022-10-25T00:08:59.091Z,13.30
2022-10-25T00:11:35.820Z,13.30
2022-10-25T00:14:10.285Z,13.30
2022-10-25T00:16:40.226Z,13.30
2022-10-25T00:19:17.592Z,13.20
2022-10-25T00:22:04.939Z,13.30
2022-10-25T00:24:34.446Z,13.20
2022-10-25T00:27:03.870Z,13.20
2022-10-25T00:29:39.936Z,13.20
2022-10-25T00:32:15.688Z,13.20
2022-10-25T00:34:55.634Z,13.20
2022-10-25T00:37:22.827Z,13.20
2022-10-25T00:39:52.597Z,13.20
2022-10-25T00:42:35.116Z,13.20
2022-10-25T00:45:07.390Z,13.20
2022-10-25T00:47:45.578Z,13.20
2022-10-25T00:51:31.381Z,13.20
2022-10-25T00:53:39.759Z,13.10
2022-10-25T00:56:19.405Z,13.10
2022-10-25T00:58:49.968Z,13.20
2022-10-25T01:01:17.098Z,13.20
2022-10-25T01:03:49.746Z,13.10
2022-10-25T01:06:31.423Z,13.10
2022-10-25T01:09:17.494Z,13.10
2022-10-25T01:11:52.267Z,13.20
2022-10-25T01:17:30.375Z,13.20
2022-10-25T01:20:23.479Z,13.10
2022-10-25T01:23:01.746Z,13.10
2022-10-25T01:25:38.816Z,13.10
2022-10-25T01:28:48.763Z,13.10
2022-10-25T01:32:13.153Z,13.10
2022-10-25T01:34:56.343Z,13.10
2022-10-25T01:37:38.828Z,13.20
2022-10-25T01:40:37.545Z,13.20
2022-10-25T01:43:44.591Z,13.30
2022-10-25T01:46:11.487Z,13.30
2022-10-25T01:48:46.605Z,13.40
2022-10-25T01:51:21.234Z,13.40
2022-10-25T01:54:00.072Z,13.50
2022-10-25T01:57:06.251Z,13.50
2022-10-25T02:00:11.589Z,13.50
2022-10-25T02:03:23.524Z,13.50
2022-10-25T02:06:02.595Z,13.40
2022-10-25T02:08:39.814Z,13.40
2022-10-25T02:11:31.530Z,13.40
2022-10-25T02:14:11.410Z,13.40
2022-10-25T02:16:50.392Z,13.40
2022-10-25T02:19:33.752Z,13.30
2022-10-25T02:22:01.717Z,13.30
2022-10-25T02:24:33.282Z,13.30
2022-10-25T02:27:03.154Z,13.20
2022-10-25T02:29:41.914Z,13.20
2022-10-25T02:32:09.125Z,13.20
2022-10-25T02:34:46.555Z,13.20
2022-10-25T02:37:13.720Z,13.20
2022-10-25T02:39:42.866Z,13.10
2022-10-25T02:42:10.944Z,13.10
2022-10-25T02:44:38.234Z,13.10
2022-10-25T02:47:21.402Z,13.10
2022-10-25T02:49:54.493Z,13.10
2022-10-25T02:52:21.643Z,13.10
2022-10-25T02:55:09.026Z,13.10
2022-10-25T02:58:17.662Z,13.10
2022-10-25T03:00:51.657Z,13.00
2022-10-25T03:03:37.408Z,13.00
2022-10-25T03:06:07.816Z,13.00
2022-10-25T03:11:56.456Z,13.00
2022-10-25T03:15:43.363Z,13.00
2022-10-25T03:19:05.954Z,13.00
2022-10-25T03:29:11.062Z,12.90
2022-10-25T03:32:12.301Z,12.90
2022-10-25T03:35:16.602Z,12.90
2022-10-25T03:38:34.076Z,12.90
2022-10-25T03:41:09.137Z,12.90
2022-10-25T03:43:50.682Z,12.90
2022-10-25T03:50:15.651Z,12.90
2022-10-25T03:53:49.406Z,12.90
2022-10-25T03:59:51.129Z,12.80
2022-10-25T04:03:26.383Z,12.80
2022-10-25T04:06:05.001Z,12.80
2022-10-25T04:08:37.424Z,12.80
2022-10-25T04:11:14.838Z,12.80
2022-10-25T04:14:01.772Z,12.80
2022-10-25T04:16:50.719Z,12.80
2022-10-25T04:22:27.146Z,12.80
2022-10-25T04:25:05.934Z,12.80
2022-10-25T04:28:03.919Z,12.70
2022-10-25T04:31:28.577Z,12.70
2022-10-25T04:34:20.680Z,12.70
2022-10-25T04:39:52.971Z,12.70
2022-10-25T04:42:37.047Z,12.80
2022-10-25T04:49:17.856Z,12.80
2022-10-25T05:02:59.689Z,12.80
2022-10-25T05:06:18.800Z,12.80
2022-10-25T05:12:54.979Z,12.80
2022-10-25T05:15:25.124Z,12.80
2022-10-25T05:30:12.216Z,12.80
2022-10-25T05:32:41.623Z,12.80
2022-10-25T05:35:09.260Z,12.80
2022-10-25T05:37:42.729Z,12.90
2022-10-25T05:40:15.703Z,12.90
2022-10-25T05:43:03.773Z,13.00
2022-10-25T05:46:28.413Z,13.00
2022-10-25T05:49:45.866Z,13.10
2022-10-25T05:56:14.774Z,13.20
2022-10-25T05:59:13.163Z,13.20
2022-10-25T06:03:18.962Z,13.30
2022-10-25T06:05:52.864Z,13.30
2022-10-25T06:31:35.289Z,13.40
2022-10-25T06:52:53.943Z,13.30
2022-10-25T06:56:48.731Z,13.30
2022-10-25T07:46:07.481Z,14.10
2022-10-25T07:48:45.134Z,14.10
2022-10-25T07:51:17.664Z,14.10
2022-10-25T07:53:45.785Z,14.10
2022-10-25T07:56:31.968Z,14.10
2022-10-25T08:01:52.020Z,14.10
2022-10-25T08:05:21.699Z,14.10
2022-10-25T08:12:12.753Z,14.00
2022-10-25T08:15:40.570Z,14.10
2022-10-25T08:34:27.431Z,14.30
2022-10-25T08:38:05.943Z,14.30
2022-10-25T08:44:51.236Z,14.40
2022-10-25T08:48:38.800Z,14.50
2022-10-25T08:51:51.830Z,14.50
2022-10-25T08:58:16.235Z,14.70
2022-10-25T09:08:50.387Z,14.90
2022-10-25T09:11:41.232Z,15.00
2022-10-25T09:26:56.155Z,15.30
2022-10-25T09:29:23.529Z,15.30
2022-10-25T11:39:26.070Z,17.10
2022-10-25T11:46:35.629Z,17.20
2022-10-25T11:53:41.296Z,17.10
2022-10-25T11:56:47.784Z,17.10
2022-10-25T12:04:29.812Z,17.20
2022-10-25T12:57:47.607Z,17.60
2022-10-25T13:07:05.763Z,17.80
2022-10-25T13:16:36.636Z,17.90
2022-10-25T13:23:40.164Z,17.80
2022-10-25T13:27:47.670Z,17.80
2022-10-25T13:31:07.659Z,17.70
2022-10-25T13:51:49.789Z,17.40
2022-10-25T13:59:03.994Z,17.30
2022-10-25T14:01:35.523Z,17.30
2022-10-25T14:16:04.966Z,17.60
2022-10-25T14:45:28.785Z,17.40
2022-10-25T14:48:38.278Z,17.30
2022-10-25T14:51:14.845Z,17.30
2022-10-25T14:54:40.003Z,17.30
2022-10-25T14:58:59.557Z,17.20
2022-10-25T15:16:52.365Z,17.00
2022-10-25T15:24:12.121Z,16.90
2022-10-25T15:34:21.265Z,16.80
2022-10-25T15:36:55.919Z,16.80
2022-10-25T15:39:37.523Z,16.80
2022-10-25T15:42:06.555Z,16.80
2022-10-25T15:45:19.327Z,16.80
2022-10-25T15:51:49.987Z,16.70
2022-10-25T15:54:41.401Z,16.70
2022-10-25T15:57:51.808Z,16.60
2022-10-25T16:01:01.059Z,16.50
2022-10-25T16:03:42.869Z,16.50
2022-10-25T16:09:08.824Z,16.30
2022-10-25T16:12:14.658Z,16.30
2022-10-25T16:15:15.375Z,16.30
2022-10-25T16:17:42.531Z,16.20
2022-10-25T16:20:18.935Z,16.20
2022-10-25T16:25:55.083Z,16.10
2022-10-25T16:31:04.319Z,16.00
2022-10-25T16:33:35.567Z,16.00
2022-10-25T16:39:11.929Z,15.90
2022-10-25T16:48:39.101Z,15.80
2022-10-25T16:51:32.335Z,15.80
2022-10-25T16:57:57.960Z,15.70
2022-10-25T17:00:53.102Z,15.60
2022-10-25T17:03:30.082Z,15.60
2022-10-25T17:06:52.312Z,15.60
2022-10-25T17:09:19.520Z,15.50
2022-10-25T17:11:46.685Z,15.50
2022-10-25T17:17:19.995Z,15.40
2022-10-25T17:20:55.164Z,15.30
2022-10-25T17:23:30.184Z,15.30
2022-10-25T17:25:59.235Z,15.20
2022-10-25T17:29:03.290Z,15.20
2022-10-25T17:32:35.771Z,15.10
2022-10-25T17:43:14.583Z,15.00
2022-10-25T17:56:15.620Z,14.80
2022-10-25T17:58:43.566Z,14.80
2022-10-25T18:05:18.786Z,14.70
2022-10-25T18:07:51.254Z,14.70
2022-10-25T18:11:16.342Z,14.70
2022-10-25T18:14:28.136Z,14.70
2022-10-25T18:17:11.377Z,14.70
2022-10-25T18:19:45.903Z,14.70
2022-10-25T18:22:30.368Z,14.70
2022-10-25T18:25:01.065Z,14.80
2022-10-25T18:27:28.392Z,14.80
2022-10-25T18:30:00.668Z,14.80
2022-10-25T20:29:15.642Z,15.30
2022-10-25T20:31:16.588Z,15.30
2022-10-25T20:33:52.497Z,15.30
2022-10-25T20:36:34.311Z,15.30
2022-10-25T20:39:02.695Z,15.30
2022-10-25T20:48:07.221Z,15.30
2022-10-25T20:51:06.821Z,15.40
2022-10-25T20:57:01.367Z,15.40
2022-10-25T20:59:46.678Z,15.40
2022-10-25T21:02:19.256Z,15.40
2022-10-25T21:05:19.790Z,15.40
2022-10-25T21:08:01.584Z,15.40
2022-10-25T21:18:55.618Z,15.50
2022-10-25T21:22:00.570Z,15.50
2022-10-25T21:24:48.727Z,15.50
2022-10-25T21:28:20.010Z,15.50
2022-10-25T21:46:58.810Z,15.60
2022-10-25T21:53:41.217Z,15.60
2022-10-25T22:20:09.040Z,15.60
2022-10-25T22:23:17.239Z,15.60
2022-10-25T22:33:16.663Z,15.70
2022-10-25T22:39:33.815Z,15.70
2022-10-25T22:52:54.637Z,15.80
2022-10-25T22:56:44.744Z,15.80
